sensor_id;sensor_type;location;lat;lon;timestamp;P1;durP1;ratioP1;P2;durP2;ratioP2
79702;SDS011;69172;52.352;5.006;2023-04-24T00:02:00;8.52;;;3.15;;
79702;SDS011;69172;52.352;5.006;2023-04-24T00:04:26;7.28;;;3.10;;
79702;SDS011;69172;52.352;5.006;2023-04-24T00:06:51;7.72;;;3.78;;
79702;SDS011;69172;52.352;5.006;2023-04-24T00:09:22;10.82;;;5.50;;
79702;SDS011;69172;52.352;5.006;2023-04-24T00:11:47;11.00;;;5.32;;
79702;SDS011;69172;52.352;5.006;2023-04-24T00:14:13;13.07;;;5.78;;
79702;SDS011;69172;52.352;5.006;2023-04-24T00:16:38;7.82;;;3.35;;
79702;SDS011;69172;52.352;5.006;2023-04-24T00:19:04;6.45;;;2.72;;
79702;SDS011;69172;52.352;5.006;2023-04-24T00:21:30;6.07;;;2.00;;
79702;SDS011;69172;52.352;5.006;2023-04-24T00:23:57;3.63;;;1.35;;
79702;SDS011;69172;52.352;5.006;2023-04-24T00:26:23;4.70;;;1.67;;
79702;SDS011;69172;52.352;5.006;2023-04-24T00:28:48;3.42;;;1.27;;
79702;SDS011;69172;52.352;5.006;2023-04-24T00:31:14;5.78;;;1.30;;
79702;SDS011;69172;52.352;5.006;2023-04-24T00:33:39;4.38;;;1.52;;
79702;SDS011;69172;52.352;5.006;2023-04-24T00:36:05;4.72;;;1.92;;
79702;SDS011;69172;52.352;5.006;2023-04-24T00:38:31;8.15;;;3.03;;
79702;SDS011;69172;52.352;5.006;2023-04-24T00:40:56;7.32;;;3.03;;
79702;SDS011;69172;52.352;5.006;2023-04-24T00:43:22;4.68;;;2.08;;
79702;SDS011;69172;52.352;5.006;2023-04-24T00:45:47;3.60;;;1.48;;
79702;SDS011;69172;52.352;5.006;2023-04-24T00:48:12;2.33;;;1.00;;
79702;SDS011;69172;52.352;5.006;2023-04-24T00:50:38;3.85;;;0.82;;
79702;SDS011;69172;52.352;5.006;2023-04-24T00:53:04;6.20;;;1.00;;
79702;SDS011;69172;52.352;5.006;2023-04-24T00:55:29;2.78;;;1.02;;
79702;SDS011;69172;52.352;5.006;2023-04-24T00:57:55;2.13;;;0.88;;
79702;SDS011;69172;52.352;5.006;2023-04-24T01:00:20;4.05;;;1.02;;
79702;SDS011;69172;52.352;5.006;2023-04-24T01:02:47;4.65;;;1.70;;
79702;SDS011;69172;52.352;5.006;2023-04-24T01:05:13;6.50;;;1.95;;
79702;SDS011;69172;52.352;5.006;2023-04-24T01:07:43;8.93;;;3.20;;
79702;SDS011;69172;52.352;5.006;2023-04-24T01:10:11;9.80;;;4.00;;
79702;SDS011;69172;52.352;5.006;2023-04-24T01:12:38;9.98;;;4.40;;
79702;SDS011;69172;52.352;5.006;2023-04-24T01:15:03;10.18;;;4.40;;
79702;SDS011;69172;52.352;5.006;2023-04-24T01:17:30;9.18;;;3.20;;
79702;SDS011;69172;52.352;5.006;2023-04-24T01:19:56;6.30;;;2.28;;
79702;SDS011;69172;52.352;5.006;2023-04-24T01:22:22;6.40;;;2.47;;
79702;SDS011;69172;52.352;5.006;2023-04-24T01:24:47;5.10;;;1.70;;
79702;SDS011;69172;52.352;5.006;2023-04-24T01:27:13;4.57;;;1.60;;
79702;SDS011;69172;52.352;5.006;2023-04-24T01:29:38;4.53;;;1.63;;
79702;SDS011;69172;52.352;5.006;2023-04-24T01:32:04;4.70;;;1.27;;
79702;SDS011;69172;52.352;5.006;2023-04-24T01:34:30;2.47;;;0.88;;
79702;SDS011;69172;52.352;5.006;2023-04-24T01:36:55;2.95;;;0.88;;
79702;SDS011;69172;52.352;5.006;2023-04-24T01:39:21;2.35;;;0.90;;
79702;SDS011;69172;52.352;5.006;2023-04-24T01:41:48;4.13;;;1.20;;
79702;SDS011;69172;52.352;5.006;2023-04-24T01:44:15;5.80;;;1.30;;
79702;SDS011;69172;52.352;5.006;2023-04-24T01:46:40;2.35;;;0.70;;
79702;SDS011;69172;52.352;5.006;2023-04-24T01:49:06;1.75;;;0.70;;
79702;SDS011;69172;52.352;5.006;2023-04-24T01:51:31;1.48;;;0.50;;
79702;SDS011;69172;52.352;5.006;2023-04-24T01:53:57;1.70;;;0.45;;
79702;SDS011;69172;52.352;5.006;2023-04-24T01:56:22;1.55;;;0.50;;
79702;SDS011;69172;52.352;5.006;2023-04-24T01:58:51;1.77;;;0.50;;
79702;SDS011;69172;52.352;5.006;2023-04-24T02:01:19;0.35;;;0.20;;
79702;SDS011;69172;52.352;5.006;2023-04-24T02:03:45;0.88;;;0.38;;
79702;SDS011;69172;52.352;5.006;2023-04-24T02:06:10;1.00;;;0.43;;
79702;SDS011;69172;52.352;5.006;2023-04-24T02:08:36;1.73;;;0.40;;
79702;SDS011;69172;52.352;5.006;2023-04-24T02:11:01;1.98;;;0.50;;
79702;SDS011;69172;52.352;5.006;2023-04-24T02:13:27;1.38;;;0.45;;
79702;SDS011;69172;52.352;5.006;2023-04-24T02:15:53;1.63;;;0.65;;
79702;SDS011;69172;52.352;5.006;2023-04-24T02:18:18;1.30;;;0.57;;
79702;SDS011;69172;52.352;5.006;2023-04-24T02:20:44;1.45;;;0.55;;
79702;SDS011;69172;52.352;5.006;2023-04-24T02:23:10;0.95;;;0.50;;
79702;SDS011;69172;52.352;5.006;2023-04-24T02:25:35;3.85;;;0.70;;
79702;SDS011;69172;52.352;5.006;2023-04-24T02:28:00;1.67;;;0.70;;
79702;SDS011;69172;52.352;5.006;2023-04-24T02:30:26;2.08;;;0.50;;
79702;SDS011;69172;52.352;5.006;2023-04-24T02:32:51;1.83;;;0.90;;
79702;SDS011;69172;52.352;5.006;2023-04-24T02:35:17;1.98;;;0.60;;
79702;SDS011;69172;52.352;5.006;2023-04-24T02:37:42;3.85;;;0.70;;
79702;SDS011;69172;52.352;5.006;2023-04-24T02:40:08;1.55;;;0.45;;
79702;SDS011;69172;52.352;5.006;2023-04-24T02:42:34;2.10;;;0.60;;
79702;SDS011;69172;52.352;5.006;2023-04-24T02:44:59;1.45;;;0.40;;
79702;SDS011;69172;52.352;5.006;2023-04-24T02:47:25;3.08;;;0.50;;
79702;SDS011;69172;52.352;5.006;2023-04-24T02:49:50;1.13;;;0.55;;
79702;SDS011;69172;52.352;5.006;2023-04-24T02:52:15;1.40;;;0.45;;
79702;SDS011;69172;52.352;5.006;2023-04-24T02:54:41;2.45;;;0.60;;
79702;SDS011;69172;52.352;5.006;2023-04-24T02:57:08;2.55;;;0.60;;
79702;SDS011;69172;52.352;5.006;2023-04-24T02:59:34;1.67;;;0.55;;
79702;SDS011;69172;52.352;5.006;2023-04-24T03:01:59;1.80;;;0.40;;
79702;SDS011;69172;52.352;5.006;2023-04-24T03:04:25;1.02;;;0.43;;
79702;SDS011;69172;52.352;5.006;2023-04-24T03:06:51;2.42;;;0.50;;
79702;SDS011;69172;52.352;5.006;2023-04-24T03:09:17;1.67;;;0.60;;
79702;SDS011;69172;52.352;5.006;2023-04-24T03:11:43;0.82;;;0.30;;
79702;SDS011;69172;52.352;5.006;2023-04-24T03:14:08;0.50;;;0.22;;
79702;SDS011;69172;52.352;5.006;2023-04-24T03:16:34;0.68;;;0.25;;
79702;SDS011;69172;52.352;5.006;2023-04-24T03:18:59;0.38;;;0.10;;
79702;SDS011;69172;52.352;5.006;2023-04-24T03:21:24;1.30;;;0.30;;
79702;SDS011;69172;52.352;5.006;2023-04-24T03:23:51;1.10;;;0.20;;
79702;SDS011;69172;52.352;5.006;2023-04-24T03:26:17;1.05;;;0.38;;
79702;SDS011;69172;52.352;5.006;2023-04-24T03:28:42;0.32;;;0.25;;
79702;SDS011;69172;52.352;5.006;2023-04-24T03:31:07;0.40;;;0.20;;
79702;SDS011;69172;52.352;5.006;2023-04-24T03:33:33;1.40;;;0.28;;
79702;SDS011;69172;52.352;5.006;2023-04-24T03:35:58;1.13;;;0.30;;
79702;SDS011;69172;52.352;5.006;2023-04-24T03:38:23;0.10;;;0.10;;
79702;SDS011;69172;52.352;5.006;2023-04-24T03:40:49;1.17;;;0.40;;
79702;SDS011;69172;52.352;5.006;2023-04-24T03:43:14;0.35;;;0.20;;
79702;SDS011;69172;52.352;5.006;2023-04-24T03:45:40;0.75;;;0.30;;
79702;SDS011;69172;52.352;5.006;2023-04-24T03:48:05;0.95;;;0.20;;
79702;SDS011;69172;52.352;5.006;2023-04-24T03:50:31;0.30;;;0.30;;
79702;SDS011;69172;52.352;5.006;2023-04-24T03:52:56;2.97;;;0.95;;
79702;SDS011;69172;52.352;5.006;2023-04-24T03:55:21;1.88;;;0.30;;
79702;SDS011;69172;52.352;5.006;2023-04-24T03:57:47;2.08;;;0.60;;
79702;SDS011;69172;52.352;5.006;2023-04-24T04:00:12;1.73;;;0.43;;
79702;SDS011;69172;52.352;5.006;2023-04-24T04:02:38;1.27;;;0.38;;
79702;SDS011;69172;52.352;5.006;2023-04-24T04:05:03;0.47;;;0.30;;
79702;SDS011;69172;52.352;5.006;2023-04-24T04:07:28;1.45;;;0.50;;
79702;SDS011;69172;52.352;5.006;2023-04-24T04:09:55;3.88;;;0.40;;
79702;SDS011;69172;52.352;5.006;2023-04-24T04:12:20;0.80;;;0.40;;
79702;SDS011;69172;52.352;5.006;2023-04-24T04:14:45;1.95;;;0.55;;
79702;SDS011;69172;52.352;5.006;2023-04-24T04:17:10;1.30;;;0.60;;
79702;SDS011;69172;52.352;5.006;2023-04-24T04:19:36;1.70;;;0.55;;
79702;SDS011;69172;52.352;5.006;2023-04-24T04:22:02;1.58;;;0.40;;
79702;SDS011;69172;52.352;5.006;2023-04-24T04:24:27;1.67;;;0.40;;
79702;SDS011;69172;52.352;5.006;2023-04-24T04:26:53;1.35;;;0.50;;
79702;SDS011;69172;52.352;5.006;2023-04-24T04:29:21;2.30;;;0.60;;
79702;SDS011;69172;52.352;5.006;2023-04-24T04:31:48;2.95;;;0.40;;
79702;SDS011;69172;52.352;5.006;2023-04-24T04:34:14;1.95;;;0.60;;
79702;SDS011;69172;52.352;5.006;2023-04-24T04:36:40;2.20;;;0.47;;
79702;SDS011;69172;52.352;5.006;2023-04-24T04:39:06;1.05;;;0.40;;
79702;SDS011;69172;52.352;5.006;2023-04-24T04:41:32;1.20;;;0.40;;
79702;SDS011;69172;52.352;5.006;2023-04-24T04:44:00;1.67;;;0.30;;
79702;SDS011;69172;52.352;5.006;2023-04-24T04:46:26;1.52;;;0.30;;
79702;SDS011;69172;52.352;5.006;2023-04-24T04:48:52;0.45;;;0.30;;
79702;SDS011;69172;52.352;5.006;2023-04-24T04:51:18;0.43;;;0.30;;
79702;SDS011;69172;52.352;5.006;2023-04-24T04:53:43;0.63;;;0.40;;
79702;SDS011;69172;52.352;5.006;2023-04-24T04:56:09;1.45;;;0.43;;
79702;SDS011;69172;52.352;5.006;2023-04-24T04:58:35;0.40;;;0.40;;
79702;SDS011;69172;52.352;5.006;2023-04-24T05:01:00;0.85;;;0.40;;
79702;SDS011;69172;52.352;5.006;2023-04-24T05:03:26;2.03;;;0.55;;
79702;SDS011;69172;52.352;5.006;2023-04-24T05:05:51;0.68;;;0.25;;
79702;SDS011;69172;52.352;5.006;2023-04-24T05:08:16;0.52;;;0.20;;
79702;SDS011;69172;52.352;5.006;2023-04-24T05:10:42;1.05;;;0.60;;
79702;SDS011;69172;52.352;5.006;2023-04-24T05:13:07;3.45;;;0.60;;
79702;SDS011;69172;52.352;5.006;2023-04-24T05:15:33;1.77;;;0.70;;
79702;SDS011;69172;52.352;5.006;2023-04-24T05:17:58;1.48;;;0.40;;
79702;SDS011;69172;52.352;5.006;2023-04-24T05:20:23;5.13;;;1.00;;
79702;SDS011;69172;52.352;5.006;2023-04-24T05:22:49;3.00;;;0.77;;
79702;SDS011;69172;52.352;5.006;2023-04-24T05:25:14;2.67;;;0.90;;
79702;SDS011;69172;52.352;5.006;2023-04-24T05:27:40;4.15;;;1.30;;
79702;SDS011;69172;52.352;5.006;2023-04-24T05:30:05;4.38;;;1.50;;
79702;SDS011;69172;52.352;5.006;2023-04-24T05:32:32;5.25;;;2.28;;
79702;SDS011;69172;52.352;5.006;2023-04-24T05:34:57;8.00;;;2.58;;
79702;SDS011;69172;52.352;5.006;2023-04-24T05:37:23;6.78;;;2.53;;
79702;SDS011;69172;52.352;5.006;2023-04-24T05:39:48;13.45;;;4.55;;
79702;SDS011;69172;52.352;5.006;2023-04-24T05:42:13;12.57;;;5.18;;
79702;SDS011;69172;52.352;5.006;2023-04-24T05:44:39;17.00;;;7.35;;
79702;SDS011;69172;52.352;5.006;2023-04-24T05:47:04;16.42;;;7.95;;
79702;SDS011;69172;52.352;5.006;2023-04-24T05:49:30;20.65;;;9.40;;
79702;SDS011;69172;52.352;5.006;2023-04-24T05:51:55;26.00;;;10.80;;
79702;SDS011;69172;52.352;5.006;2023-04-24T05:54:21;25.50;;;12.13;;
79702;SDS011;69172;52.352;5.006;2023-04-24T05:56:47;20.92;;;10.20;;
79702;SDS011;69172;52.352;5.006;2023-04-24T05:59:14;24.38;;;11.02;;
79702;SDS011;69172;52.352;5.006;2023-04-24T06:01:40;19.92;;;8.88;;
79702;SDS011;69172;52.352;5.006;2023-04-24T06:04:05;17.30;;;10.45;;
79702;SDS011;69172;52.352;5.006;2023-04-24T06:06:31;18.00;;;10.13;;
79702;SDS011;69172;52.352;5.006;2023-04-24T06:08:57;22.05;;;9.68;;
79702;SDS011;69172;52.352;5.006;2023-04-24T06:11:23;24.45;;;11.50;;
79702;SDS011;69172;52.352;5.006;2023-04-24T06:13:50;29.02;;;11.13;;
79702;SDS011;69172;52.352;5.006;2023-04-24T06:16:15;27.20;;;12.70;;
79702;SDS011;69172;52.352;5.006;2023-04-24T06:18:41;24.80;;;10.50;;
79702;SDS011;69172;52.352;5.006;2023-04-24T06:21:07;26.67;;;12.20;;
79702;SDS011;69172;52.352;5.006;2023-04-24T06:23:33;21.25;;;10.50;;
79702;SDS011;69172;52.352;5.006;2023-04-24T06:25:59;18.77;;;9.65;;
79702;SDS011;69172;52.352;5.006;2023-04-24T06:28:24;16.55;;;7.57;;
79702;SDS011;69172;52.352;5.006;2023-04-24T06:30:50;20.73;;;7.70;;
79702;SDS011;69172;52.352;5.006;2023-04-24T06:33:16;21.17;;;7.25;;
79702;SDS011;69172;52.352;5.006;2023-04-24T06:35:42;18.35;;;7.65;;
79702;SDS011;69172;52.352;5.006;2023-04-24T06:38:08;14.82;;;6.90;;
79702;SDS011;69172;52.352;5.006;2023-04-24T06:40:33;12.93;;;6.25;;
79702;SDS011;69172;52.352;5.006;2023-04-24T06:42:59;19.73;;;7.85;;
79702;SDS011;69172;52.352;5.006;2023-04-24T06:45:28;17.10;;;8.27;;
79702;SDS011;69172;52.352;5.006;2023-04-24T06:47:54;17.77;;;7.57;;
79702;SDS011;69172;52.352;5.006;2023-04-24T06:50:19;21.33;;;8.68;;
79702;SDS011;69172;52.352;5.006;2023-04-24T06:52:45;18.90;;;7.80;;
79702;SDS011;69172;52.352;5.006;2023-04-24T06:55:10;17.70;;;7.10;;
79702;SDS011;69172;52.352;5.006;2023-04-24T06:57:36;18.60;;;7.07;;
79702;SDS011;69172;52.352;5.006;2023-04-24T07:00:02;21.88;;;7.93;;
79702;SDS011;69172;52.352;5.006;2023-04-24T07:02:30;20.98;;;9.40;;
79702;SDS011;69172;52.352;5.006;2023-04-24T07:04:55;17.08;;;7.55;;
79702;SDS011;69172;52.352;5.006;2023-04-24T07:07:21;19.30;;;7.35;;
79702;SDS011;69172;52.352;5.006;2023-04-24T07:09:46;16.25;;;6.70;;
79702;SDS011;69172;52.352;5.006;2023-04-24T07:12:11;17.13;;;7.20;;
79702;SDS011;69172;52.352;5.006;2023-04-24T07:14:37;16.70;;;6.28;;
79702;SDS011;69172;52.352;5.006;2023-04-24T07:17:03;14.32;;;5.68;;
79702;SDS011;69172;52.352;5.006;2023-04-24T07:19:29;15.63;;;5.78;;
79702;SDS011;69172;52.352;5.006;2023-04-24T07:21:55;16.70;;;5.50;;
79702;SDS011;69172;52.352;5.006;2023-04-24T07:24:20;15.10;;;5.60;;
79702;SDS011;69172;52.352;5.006;2023-04-24T07:26:46;16.95;;;5.97;;
79702;SDS011;69172;52.352;5.006;2023-04-24T07:29:12;13.73;;;5.82;;
79702;SDS011;69172;52.352;5.006;2023-04-24T07:31:38;16.98;;;5.45;;
79702;SDS011;69172;52.352;5.006;2023-04-24T07:34:03;17.75;;;5.28;;
79702;SDS011;69172;52.352;5.006;2023-04-24T07:36:29;22.85;;;6.32;;
79702;SDS011;69172;52.352;5.006;2023-04-24T07:38:54;18.15;;;5.10;;
79702;SDS011;69172;52.352;5.006;2023-04-24T07:41:21;14.85;;;4.65;;
79702;SDS011;69172;52.352;5.006;2023-04-24T07:43:46;19.75;;;4.65;;
79702;SDS011;69172;52.352;5.006;2023-04-24T07:46:12;19.35;;;5.05;;
79702;SDS011;69172;52.352;5.006;2023-04-24T07:48:37;16.60;;;4.05;;
79702;SDS011;69172;52.352;5.006;2023-04-24T07:51:03;16.23;;;4.75;;
79702;SDS011;69172;52.352;5.006;2023-04-24T07:53:28;15.57;;;2.40;;
79702;SDS011;69172;52.352;5.006;2023-04-24T07:55:55;16.98;;;3.17;;
79702;SDS011;69172;52.352;5.006;2023-04-24T07:58:21;14.57;;;2.65;;
79702;SDS011;69172;52.352;5.006;2023-04-24T08:00:46;14.38;;;2.25;;
79702;SDS011;69172;52.352;5.006;2023-04-24T08:03:12;9.95;;;2.70;;
79702;SDS011;69172;52.352;5.006;2023-04-24T08:05:38;14.68;;;2.85;;
79702;SDS011;69172;52.352;5.006;2023-04-24T08:08:03;22.95;;;2.90;;
79702;SDS011;69172;52.352;5.006;2023-04-24T08:10:29;12.23;;;2.58;;
79702;SDS011;69172;52.352;5.006;2023-04-24T08:12:54;14.05;;;2.92;;
79702;SDS011;69172;52.352;5.006;2023-04-24T08:15:20;9.70;;;2.83;;
79702;SDS011;69172;52.352;5.006;2023-04-24T08:17:46;10.95;;;2.65;;
79702;SDS011;69172;52.352;5.006;2023-04-24T08:20:11;13.75;;;2.95;;
79702;SDS011;69172;52.352;5.006;2023-04-24T08:22:40;12.30;;;2.33;;
79702;SDS011;69172;52.352;5.006;2023-04-24T08:25:07;9.57;;;2.28;;
79702;SDS011;69172;52.352;5.006;2023-04-24T08:27:33;10.98;;;1.95;;
79702;SDS011;69172;52.352;5.006;2023-04-24T08:29:58;13.57;;;2.40;;
79702;SDS011;69172;52.352;5.006;2023-04-24T08:32:24;10.43;;;1.88;;
79702;SDS011;69172;52.352;5.006;2023-04-24T08:34:52;11.23;;;2.38;;
79702;SDS011;69172;52.352;5.006;2023-04-24T08:37:18;16.00;;;1.63;;
79702;SDS011;69172;52.352;5.006;2023-04-24T08:39:43;11.43;;;2.83;;
79702;SDS011;69172;52.352;5.006;2023-04-24T08:42:09;15.60;;;2.10;;
79702;SDS011;69172;52.352;5.006;2023-04-24T08:44:36;12.93;;;2.83;;
79702;SDS011;69172;52.352;5.006;2023-04-24T08:47:02;9.65;;;2.33;;
79702;SDS011;69172;52.352;5.006;2023-04-24T08:49:28;13.52;;;2.38;;
79702;SDS011;69172;52.352;5.006;2023-04-24T08:51:54;12.23;;;2.78;;
79702;SDS011;69172;52.352;5.006;2023-04-24T08:54:20;10.77;;;1.92;;
79702;SDS011;69172;52.352;5.006;2023-04-24T08:56:46;14.45;;;2.15;;
79702;SDS011;69172;52.352;5.006;2023-04-24T08:59:14;13.85;;;2.60;;
79702;SDS011;69172;52.352;5.006;2023-04-24T09:01:40;10.93;;;1.92;;
79702;SDS011;69172;52.352;5.006;2023-04-24T09:04:07;10.27;;;2.08;;
79702;SDS011;69172;52.352;5.006;2023-04-24T09:06:35;11.02;;;2.00;;
79702;SDS011;69172;52.352;5.006;2023-04-24T09:09:01;7.70;;;1.63;;
79702;SDS011;69172;52.352;5.006;2023-04-24T09:11:29;10.65;;;2.53;;
79702;SDS011;69172;52.352;5.006;2023-04-24T09:13:55;12.15;;;2.03;;
79702;SDS011;69172;52.352;5.006;2023-04-24T09:16:21;11.65;;;2.30;;
79702;SDS011;69172;52.352;5.006;2023-04-24T09:18:49;12.82;;;2.63;;
79702;SDS011;69172;52.352;5.006;2023-04-24T09:21:14;13.98;;;2.35;;
79702;SDS011;69172;52.352;5.006;2023-04-24T09:23:40;12.02;;;2.10;;
79702;SDS011;69172;52.352;5.006;2023-04-24T09:26:05;12.70;;;2.78;;
79702;SDS011;69172;52.352;5.006;2023-04-24T09:28:37;10.60;;;2.15;;
79702;SDS011;69172;52.352;5.006;2023-04-24T09:31:14;9.45;;;2.20;;
79702;SDS011;69172;52.352;5.006;2023-04-24T09:36:38;9.88;;;2.20;;
79702;SDS011;69172;52.352;5.006;2023-04-24T09:39:06;12.15;;;2.40;;
79702;SDS011;69172;52.352;5.006;2023-04-24T09:41:43;14.77;;;1.77;;
79702;SDS011;69172;52.352;5.006;2023-04-24T09:44:19;11.05;;;1.95;;
79702;SDS011;69172;52.352;5.006;2023-04-24T09:46:54;12.07;;;1.45;;
79702;SDS011;69172;52.352;5.006;2023-04-24T09:49:30;11.55;;;1.70;;
79702;SDS011;69172;52.352;5.006;2023-04-24T09:52:04;6.63;;;1.33;;
79702;SDS011;69172;52.352;5.006;2023-04-24T09:54:31;7.47;;;1.30;;
79702;SDS011;69172;52.352;5.006;2023-04-24T09:56:56;8.98;;;1.77;;
79702;SDS011;69172;52.352;5.006;2023-04-24T09:59:22;9.23;;;2.13;;
79702;SDS011;69172;52.352;5.006;2023-04-24T10:01:54;7.75;;;1.30;;
79702;SDS011;69172;52.352;5.006;2023-04-24T10:04:24;6.53;;;1.05;;
79702;SDS011;69172;52.352;5.006;2023-04-24T10:06:53;6.70;;;1.67;;
79702;SDS011;69172;52.352;5.006;2023-04-24T10:09:19;10.35;;;1.65;;
79702;SDS011;69172;52.352;5.006;2023-04-24T10:11:48;8.50;;;1.63;;
79702;SDS011;69172;52.352;5.006;2023-04-24T10:14:15;8.18;;;1.40;;
79702;SDS011;69172;52.352;5.006;2023-04-24T10:16:43;5.65;;;1.10;;
79702;SDS011;69172;52.352;5.006;2023-04-24T10:19:09;3.92;;;1.00;;
79702;SDS011;69172;52.352;5.006;2023-04-24T10:21:38;3.88;;;0.80;;
79702;SDS011;69172;52.352;5.006;2023-04-24T10:24:07;2.65;;;0.60;;
79702;SDS011;69172;52.352;5.006;2023-04-24T10:26:36;5.00;;;0.77;;
79702;SDS011;69172;52.352;5.006;2023-04-24T10:29:02;2.17;;;0.73;;
79702;SDS011;69172;52.352;5.006;2023-04-24T10:31:31;3.95;;;0.75;;
79702;SDS011;69172;52.352;5.006;2023-04-24T10:33:58;5.20;;;0.57;;
79702;SDS011;69172;52.352;5.006;2023-04-24T10:36:24;4.82;;;0.85;;
79702;SDS011;69172;52.352;5.006;2023-04-24T10:38:53;7.13;;;1.08;;
79702;SDS011;69172;52.352;5.006;2023-04-24T10:41:21;6.38;;;1.13;;
79702;SDS011;69172;52.352;5.006;2023-04-24T10:44:04;6.10;;;0.82;;
79702;SDS011;69172;52.352;5.006;2023-04-24T10:46:32;7.13;;;1.10;;
79702;SDS011;69172;52.352;5.006;2023-04-24T10:48:58;8.52;;;0.93;;
79702;SDS011;69172;52.352;5.006;2023-04-24T10:51:26;4.20;;;1.00;;
79702;SDS011;69172;52.352;5.006;2023-04-24T10:54:23;4.40;;;0.88;;
79702;SDS011;69172;52.352;5.006;2023-04-24T10:56:52;5.40;;;0.90;;
79702;SDS011;69172;52.352;5.006;2023-04-24T10:59:26;4.25;;;1.00;;
79702;SDS011;69172;52.352;5.006;2023-04-24T11:01:53;5.35;;;1.30;;
79702;SDS011;69172;52.352;5.006;2023-04-24T11:04:30;5.25;;;0.90;;
79702;SDS011;69172;52.352;5.006;2023-04-24T11:06:57;4.00;;;0.90;;
79702;SDS011;69172;52.352;5.006;2023-04-24T11:09:22;3.00;;;0.65;;
79702;SDS011;69172;52.352;5.006;2023-04-24T11:12:02;5.55;;;1.15;;
79702;SDS011;69172;52.352;5.006;2023-04-24T11:17:43;2.95;;;1.00;;
79702;SDS011;69172;52.352;5.006;2023-04-24T11:20:10;6.40;;;0.85;;
79702;SDS011;69172;52.352;5.006;2023-04-24T11:22:37;5.68;;;1.45;;
79702;SDS011;69172;52.352;5.006;2023-04-24T11:25:05;4.40;;;0.98;;
79702;SDS011;69172;52.352;5.006;2023-04-24T11:27:33;3.72;;;0.82;;
79702;SDS011;69172;52.352;5.006;2023-04-24T11:30:05;6.28;;;1.40;;
79702;SDS011;69172;52.352;5.006;2023-04-24T11:35:06;6.15;;;1.15;;
79702;SDS011;69172;52.352;5.006;2023-04-24T11:37:34;6.18;;;0.80;;
79702;SDS011;69172;52.352;5.006;2023-04-24T11:40:02;4.85;;;1.00;;
79702;SDS011;69172;52.352;5.006;2023-04-24T11:42:33;2.65;;;0.70;;
79702;SDS011;69172;52.352;5.006;2023-04-24T11:45:07;5.28;;;1.00;;
79702;SDS011;69172;52.352;5.006;2023-04-24T11:47:33;2.45;;;0.60;;
79702;SDS011;69172;52.352;5.006;2023-04-24T11:49:59;5.72;;;1.05;;
79702;SDS011;69172;52.352;5.006;2023-04-24T11:52:28;5.18;;;1.00;;
79702;SDS011;69172;52.352;5.006;2023-04-24T11:54:55;8.85;;;1.50;;
79702;SDS011;69172;52.352;5.006;2023-04-24T11:57:21;8.98;;;1.35;;
79702;SDS011;69172;52.352;5.006;2023-04-24T11:59:47;7.85;;;1.73;;
79702;SDS011;69172;52.352;5.006;2023-04-24T12:02:23;5.55;;;1.42;;
79702;SDS011;69172;52.352;5.006;2023-04-24T12:04:49;5.93;;;1.65;;
79702;SDS011;69172;52.352;5.006;2023-04-24T12:07:16;8.27;;;1.42;;
79702;SDS011;69172;52.352;5.006;2023-04-24T12:12:08;9.30;;;1.65;;
79702;SDS011;69172;52.352;5.006;2023-04-24T12:14:41;11.40;;;2.20;;
79702;SDS011;69172;52.352;5.006;2023-04-24T12:17:10;13.68;;;3.22;;
79702;SDS011;69172;52.352;5.006;2023-04-24T12:19:35;7.88;;;1.17;;
79702;SDS011;69172;52.352;5.006;2023-04-24T12:22:02;8.13;;;1.30;;
79702;SDS011;69172;52.352;5.006;2023-04-24T12:24:28;4.32;;;1.75;;
79702;SDS011;69172;52.352;5.006;2023-04-24T12:26:55;10.65;;;1.73;;
79702;SDS011;69172;52.352;5.006;2023-04-24T12:29:21;9.18;;;1.98;;
79702;SDS011;69172;52.352;5.006;2023-04-24T12:31:48;7.97;;;1.70;;
79702;SDS011;69172;52.352;5.006;2023-04-24T12:34:18;10.23;;;2.40;;
79702;SDS011;69172;52.352;5.006;2023-04-24T12:36:45;12.63;;;2.65;;
79702;SDS011;69172;52.352;5.006;2023-04-24T12:39:17;12.23;;;2.20;;
79702;SDS011;69172;52.352;5.006;2023-04-24T12:41:56;17.02;;;2.13;;
79702;SDS011;69172;52.352;5.006;2023-04-24T12:44:29;12.60;;;2.22;;
79702;SDS011;69172;52.352;5.006;2023-04-24T12:49:24;9.48;;;2.58;;
79702;SDS011;69172;52.352;5.006;2023-04-24T12:51:50;11.18;;;1.90;;
79702;SDS011;69172;52.352;5.006;2023-04-24T12:54:15;10.45;;;2.30;;
79702;SDS011;69172;52.352;5.006;2023-04-24T12:56:41;8.90;;;1.80;;
79702;SDS011;69172;52.352;5.006;2023-04-24T12:59:06;11.48;;;2.45;;
79702;SDS011;69172;52.352;5.006;2023-04-24T13:01:31;12.57;;;2.42;;
79702;SDS011;69172;52.352;5.006;2023-04-24T13:03:57;11.15;;;2.03;;
79702;SDS011;69172;52.352;5.006;2023-04-24T13:06:22;14.38;;;2.45;;
79702;SDS011;69172;52.352;5.006;2023-04-24T13:08:47;17.67;;;2.38;;
79702;SDS011;69172;52.352;5.006;2023-04-24T13:11:13;15.73;;;3.22;;
79702;SDS011;69172;52.352;5.006;2023-04-24T13:13:39;15.32;;;2.80;;
79702;SDS011;69172;52.352;5.006;2023-04-24T13:16:04;14.95;;;2.65;;
79702;SDS011;69172;52.352;5.006;2023-04-24T13:18:30;18.52;;;2.83;;
79702;SDS011;69172;52.352;5.006;2023-04-24T13:20:55;14.10;;;3.30;;
79702;SDS011;69172;52.352;5.006;2023-04-24T13:23:21;8.63;;;2.25;;
79702;SDS011;69172;52.352;5.006;2023-04-24T13:25:47;12.27;;;3.20;;
79702;SDS011;69172;52.352;5.006;2023-04-24T13:28:13;14.80;;;2.35;;
79702;SDS011;69172;52.352;5.006;2023-04-24T13:30:38;13.27;;;3.08;;
79702;SDS011;69172;52.352;5.006;2023-04-24T13:33:04;10.30;;;2.05;;
79702;SDS011;69172;52.352;5.006;2023-04-24T13:35:29;6.47;;;1.67;;
79702;SDS011;69172;52.352;5.006;2023-04-24T13:37:54;13.15;;;2.45;;
79702;SDS011;69172;52.352;5.006;2023-04-24T13:40:20;12.20;;;3.00;;
79702;SDS011;69172;52.352;5.006;2023-04-24T13:42:45;16.40;;;2.45;;
79702;SDS011;69172;52.352;5.006;2023-04-24T13:45:11;12.52;;;3.28;;
79702;SDS011;69172;52.352;5.006;2023-04-24T13:47:37;13.63;;;2.50;;
79702;SDS011;69172;52.352;5.006;2023-04-24T13:50:05;12.70;;;2.78;;
79702;SDS011;69172;52.352;5.006;2023-04-24T13:52:32;12.60;;;2.47;;
79702;SDS011;69172;52.352;5.006;2023-04-24T13:54:57;11.43;;;2.65;;
79702;SDS011;69172;52.352;5.006;2023-04-24T13:57:25;9.30;;;2.72;;
79702;SDS011;69172;52.352;5.006;2023-04-24T13:59:52;9.50;;;2.17;;
79702;SDS011;69172;52.352;5.006;2023-04-24T14:02:18;9.20;;;1.70;;
79702;SDS011;69172;52.352;5.006;2023-04-24T14:04:43;7.97;;;1.70;;
79702;SDS011;69172;52.352;5.006;2023-04-24T14:07:09;7.90;;;1.63;;
79702;SDS011;69172;52.352;5.006;2023-04-24T14:09:41;6.78;;;1.63;;
79702;SDS011;69172;52.352;5.006;2023-04-24T14:12:08;6.30;;;1.52;;
79702;SDS011;69172;52.352;5.006;2023-04-24T14:14:40;10.70;;;1.45;;
79702;SDS011;69172;52.352;5.006;2023-04-24T14:17:05;6.88;;;1.55;;
79702;SDS011;69172;52.352;5.006;2023-04-24T14:19:33;16.02;;;2.63;;
79702;SDS011;69172;52.352;5.006;2023-04-24T14:22:00;8.43;;;1.98;;
79702;SDS011;69172;52.352;5.006;2023-04-24T14:24:26;10.88;;;2.30;;
79702;SDS011;69172;52.352;5.006;2023-04-24T14:26:51;10.80;;;2.30;;
79702;SDS011;69172;52.352;5.006;2023-04-24T14:29:19;10.57;;;2.53;;
79702;SDS011;69172;52.352;5.006;2023-04-24T14:31:44;15.45;;;2.83;;
79702;SDS011;69172;52.352;5.006;2023-04-24T14:34:16;13.35;;;2.75;;
79702;SDS011;69172;52.352;5.006;2023-04-24T14:36:43;14.13;;;2.67;;
79702;SDS011;69172;52.352;5.006;2023-04-24T14:39:09;13.00;;;2.60;;
79702;SDS011;69172;52.352;5.006;2023-04-24T14:41:35;12.98;;;2.72;;
79702;SDS011;69172;52.352;5.006;2023-04-24T14:44:02;11.48;;;2.53;;
79702;SDS011;69172;52.352;5.006;2023-04-24T14:46:28;15.52;;;2.95;;
79702;SDS011;69172;52.352;5.006;2023-04-24T14:48:55;14.65;;;2.88;;
79702;SDS011;69172;52.352;5.006;2023-04-24T14:51:21;12.43;;;2.63;;